Time;durP1;ratioP1;P1;durP2;ratioP2;P2;SDS_P1;SDS_P2;PMS_P1;PMS_P2;Temp;Humidity;BMP_temperature;BMP_pressure;BME280_temperature;BME280_humidity;BME280_pressure;Samples;Min_cycle;Max_cycle;Signal;HPM_P1;HPM_P2
2022/11/29 00:02:00;;;;;;;16.15;7.82;;;6.70;89.90;;;;;;5023231;28;20045;-59
2022/11/29 00:04:35;;;;;;;14.85;8.63;;;6.70;89.80;;;;;;5022576;28;20053;-61
2022/11/29 00:07:05;;;;;;;15.27;8.70;;;6.70;90.10;;;;;;5029920;28;20055;-62
2022/11/29 00:09:35;;;;;;;15.52;8.57;;;6.70;90.20;;;;;;5038135;28;20150;-61
2022/11/29 00:12:13;;;;;;;14.75;8.50;;;6.70;90.10;;;;;;5044696;28;20048;-60
2022/11/29 00:14:41;;;;;;;15.50;9.43;;;6.70;90.20;;;;;;5047732;28;20048;-61
2022/11/29 00:17:11;;;;;;;14.70;8.93;;;6.70;90.20;;;;;;5043588;28;20621;-61
2022/11/29 00:19:39;;;;;;;15.23;8.65;;;6.70;90.30;;;;;;5046191;28;20076;-60
2022/11/29 00:22:06;;;;;;;13.50;8.43;;;6.70;90.30;;;;;;5043523;28;20099;-60
2022/11/29 00:24:33;;;;;;;14.82;8.13;;;6.70;90.30;;;;;;5045714;28;20073;-61
2022/11/29 00:27:00;;;;;;;15.43;9.30;;;6.70;90.30;;;;;;5047888;28;20073;-60
2022/11/29 00:29:29;;;;;;;15.75;8.32;;;6.70;90.40;;;;;;5046583;28;20573;-60
2022/11/29 00:31:56;;;;;;;16.40;8.52;;;6.70;90.40;;;;;;5046603;28;20045;-61
2022/11/29 00:34:23;;;;;;;14.43;8.85;;;6.70;90.40;;;;;;5046625;28;20508;-61
2022/11/29 00:36:51;;;;;;;14.73;8.95;;;6.70;90.50;;;;;;5044783;28;20041;-61
2022/11/29 00:39:18;;;;;;;14.35;8.35;;;6.70;90.30;;;;;;5047520;28;20058;-61
2022/11/29 00:41:45;;;;;;;15.00;8.82;;;6.70;90.50;;;;;;5049756;28;20106;-62
2022/11/29 00:44:12;;;;;;;14.63;8.73;;;6.70;90.40;;;;;;5049068;28;20110;-61
2022/11/29 00:46:39;;;;;;;13.32;8.57;;;6.70;90.50;;;;;;5043913;28;20057;-60
2022/11/29 00:49:06;;;;;;;16.70;9.38;;;6.70;90.50;;;;;;5045984;28;20037;-61
2022/11/29 00:51:33;;;;;;;14.68;8.52;;;6.70;90.50;;;;;;5046069;28;20048;-61
2022/11/29 00:54:01;;;;;;;14.00;8.48;;;6.70;90.50;;;;;;5044730;28;20052;-61
2022/11/29 00:56:32;;;;;;;14.40;8.48;;;6.70;90.40;;;;;;5045349;28;20033;-59
2022/11/29 00:58:59;;;;;;;16.33;8.30;;;6.70;90.20;;;;;;5028841;28;20598;-60
2022/11/29 01:01:26;;;;;;;14.45;8.60;;;6.70;90.40;;;;;;5046392;28;20048;-61
2022/11/29 01:03:53;;;;;;;12.27;7.85;;;6.70;90.40;;;;;;5043694;28;20056;-61
2022/11/29 01:06:20;;;;;;;12.93;8.07;;;6.70;90.40;;;;;;5045520;28;20062;-61
2022/11/29 01:08:47;;;;;;;13.07;7.68;;;6.70;90.40;;;;;;5044354;28;20053;-61
2022/11/29 01:11:18;;;;;;;12.77;7.78;;;6.70;90.20;;;;;;5043508;28;20136;-60
2022/11/29 01:13:46;;;;;;;13.48;7.53;;;6.70;90.00;;;;;;5043652;28;20045;-61
2022/11/29 01:16:14;;;;;;;13.38;7.88;;;6.70;90.20;;;;;;5046012;28;20055;-61
2022/11/29 01:18:42;;;;;;;14.15;7.45;;;6.70;90.20;;;;;;5043572;28;20049;-61
2022/11/29 01:21:14;;;;;;;13.07;7.65;;;6.70;90.10;;;;;;5051166;28;20048;-60
2022/11/29 01:23:41;;;;;;;14.00;7.75;;;6.70;90.50;;;;;;5048138;28;20575;-61
2022/11/29 01:26:11;;;;;;;12.77;8.45;;;6.70;90.50;;;;;;5050269;28;20072;-61
2022/11/29 01:28:40;;;;;;;14.50;8.18;;;6.70;90.60;;;;;;5051171;28;20049;-61
2022/11/29 01:31:09;;;;;;;15.65;8.38;;;6.70;90.50;;;;;;5048528;28;20129;-61
2022/11/29 01:33:36;;;;;;;13.23;7.90;;;6.70;90.50;;;;;;5049496;28;20047;-60
2022/11/29 01:36:06;;;;;;;13.98;7.20;;;6.70;90.40;;;;;;5051163;28;20731;-60
2022/11/29 01:38:33;;;;;;;13.35;8.07;;;6.70;90.50;;;;;;5050339;28;20049;-62
2022/11/29 01:41:02;;;;;;;12.77;6.93;;;6.70;90.40;;;;;;5030459;28;20131;-61
2022/11/29 01:43:29;;;;;;;12.27;6.80;;;6.70;90.20;;;;;;5050870;28;20053;-61
2022/11/29 01:45:57;;;;;;;12.23;6.63;;;6.70;90.30;;;;;;5050909;28;20045;-62
2022/11/29 01:48:27;;;;;;;13.43;6.93;;;6.70;90.30;;;;;;5047740;28;20066;-61
2022/11/29 01:50:58;;;;;;;13.38;7.10;;;6.70;90.30;;;;;;5050510;28;20152;-61
2022/11/29 01:53:25;;;;;;;12.77;6.68;;;6.70;90.10;;;;;;5051265;28;20122;-61
2022/11/29 01:55:56;;;;;;;12.77;7.20;;;6.70;90.40;;;;;;5051272;28;20968;-60
2022/11/29 01:58:23;;;;;;;12.10;7.13;;;6.70;90.40;;;;;;5048486;28;20049;-60
2022/11/29 02:00:51;;;;;;;11.50;7.07;;;6.70;90.40;;;;;;5048237;28;20045;-61
2022/11/29 02:03:19;;;;;;;10.73;6.55;;;6.70;90.30;;;;;;5050132;28;20040;-59
2022/11/29 02:05:49;;;;;;;13.63;7.22;;;6.70;90.40;;;;;;5047440;28;20074;-59
2022/11/29 02:08:21;;;;;;;14.38;6.70;;;6.70;90.40;;;;;;5048921;28;20063;-62
2022/11/29 02:11:14;;;;;;;12.52;6.45;;;6.70;90.10;;;;;;5050489;28;20051;-62
2022/11/29 02:13:56;;;;;;;13.18;7.45;;;6.70;90.10;;;;;;5051395;28;20045;-61
2022/11/29 02:16:29;;;;;;;12.98;6.85;;;6.70;90.20;;;;;;5047251;28;20063;-61
2022/11/29 02:19:03;;;;;;;15.52;7.45;;;6.70;90.50;;;;;;5029855;28;20045;-60
2022/11/29 02:21:44;;;;;;;13.60;7.13;;;6.70;90.50;;;;;;5048117;28;20412;-60
2022/11/29 02:24:40;;;;;;;12.45;7.10;;;6.70;90.30;;;;;;5046313;28;20041;-60
2022/11/29 02:27:26;;;;;;;12.23;7.25;;;6.70;90.60;;;;;;5049064;28;20541;-61
2022/11/29 02:30:15;;;;;;;11.82;7.30;;;6.70;90.60;;;;;;5048699;28;20044;-67
2022/11/29 02:33:23;;;;;;;12.48;7.32;;;6.70;90.60;;;;;;5048270;28;20041;-67
2022/11/29 02:36:21;;;;;;;12.30;6.55;;;6.70;90.70;;;;;;5050921;28;20563;-68
2022/11/29 02:39:14;;;;;;;13.00;6.93;;;6.70;90.70;;;;;;5005288;28;20131;-68
2022/11/29 02:41:58;;;;;;;13.00;6.78;;;6.70;90.50;;;;;;5050662;28;20055;-69
2022/11/29 02:44:55;;;;;;;13.38;6.90;;;6.70;90.50;;;;;;5048744;28;20429;-67
2022/11/29 02:47:29;;;;;;;12.85;6.68;;;6.70;90.70;;;;;;5045493;28;20503;-69
2022/11/29 02:50:19;;;;;;;12.43;7.63;;;6.70;90.80;;;;;;5045997;28;20053;-69
2022/11/29 02:52:50;;;;;;;;;;;6.70;90.80;;;;;;5039137;28;20052;-68
2022/11/29 02:55:24;;;;;;;11.63;6.57;;;6.70;90.80;;;;;;5047470;28;19925;-69
2022/11/29 02:58:00;;;;;;;12.88;7.47;;;6.70;90.70;;;;;;5045304;28;20084;-70
2022/11/29 03:00:39;;;;;;;11.80;6.80;;;6.80;90.80;;;;;;5047028;28;20051;-68
2022/11/29 03:03:14;;;;;;;12.80;6.63;;;6.80;90.40;;;;;;5044887;28;20041;-67
2022/11/29 03:05:50;;;;;;;13.70;6.35;;;6.70;90.50;;;;;;5046323;28;20075;-67
2022/11/29 03:08:25;;;;;;;12.52;7.53;;;6.80;90.60;;;;;;5046035;28;20057;-68
2022/11/29 03:11:01;;;;;;;12.43;6.97;;;6.80;90.70;;;;;;5048701;28;20041;-69
2022/11/29 03:13:43;;;;;;;12.93;7.25;;;6.70;90.80;;;;;;5044874;28;20655;-68
2022/11/29 03:16:21;;;;;;;11.93;6.35;;;6.70;90.80;;;;;;5047050;28;20140;-67
2022/11/29 03:19:00;;;;;;;11.85;6.32;;;6.80;90.90;;;;;;5044829;28;20055;-68
2022/11/29 03:21:40;;;;;;;10.38;6.53;;;6.70;90.60;;;;;;5048066;28;20041;-69
2022/11/29 03:24:15;;;;;;;10.95;6.32;;;6.80;90.60;;;;;;5046202;28;20049;-68
2022/11/29 03:26:49;;;;;;;10.93;6.57;;;6.80;90.80;;;;;;5050084;28;20481;-68
2022/11/29 03:29:25;;;;;;;13.93;6.35;;;6.80;90.80;;;;;;5049320;28;20079;-68
2022/11/29 03:32:01;;;;;;;11.13;6.38;;;6.80;90.90;;;;;;5048858;28;20476;-68
2022/11/29 03:34:39;;;;;;;11.05;6.43;;;6.80;90.90;;;;;;5046571;28;20064;-68
2022/11/29 03:37:14;;;;;;;12.32;6.20;;;6.80;90.90;;;;;;5048903;28;20385;-68
2022/11/29 03:39:50;;;;;;;10.38;6.53;;;6.80;90.80;;;;;;5046044;28;20059;-67
2022/11/29 03:42:24;;;;;;;12.07;6.68;;;6.80;90.80;;;;;;5045549;28;20059;-68
2022/11/29 03:44:58;;;;;;;13.27;6.70;;;6.80;90.90;;;;;;5049082;28;20055;-68
2022/11/29 03:47:30;;;;;;;10.30;5.95;;;6.70;90.90;;;;;;5045216;28;20045;-67
2022/11/29 03:50:06;;;;;;;9.63;5.88;;;6.70;91.00;;;;;;5050063;28;20506;-68
2022/11/29 03:52:46;;;;;;;9.50;6.03;;;6.70;91.10;;;;;;5047608;28;20057;-68
2022/11/29 03:55:29;;;;;;;10.60;6.15;;;6.70;91.10;;;;;;5039205;28;20044;-68
2022/11/29 03:58:06;;;;;;;10.57;6.53;;;6.70;91.10;;;;;;5046313;28;20041;-67
2022/11/29 04:00:44;;;;;;;10.30;6.07;;;6.80;91.10;;;;;;5043542;28;20127;-68
2022/11/29 04:03:38;;;;;;;10.98;6.53;;;6.80;91.10;;;;;;5045139;28;20065;-67
2022/11/29 04:06:23;;;;;;;11.13;6.18;;;6.70;91.20;;;;;;5047919;28;20041;-68
2022/11/29 04:09:31;;;;;;;12.45;6.40;;;6.80;91.20;;;;;;5046916;28;20519;-67
2022/11/29 04:12:18;;;;;;;11.00;5.97;;;6.70;91.20;;;;;;5044630;28;20055;-67
2022/11/29 04:15:15;;;;;;;11.77;6.18;;;6.70;91.20;;;;;;5045973;28;20240;-68
2022/11/29 04:18:06;;;;;;;10.15;6.60;;;6.70;91.20;;;;;;5045908;28;20037;-68
2022/11/29 04:21:08;;;;;;;13.15;6.85;;;6.80;91.20;;;;;;5048873;28;20048;-72
2022/11/29 04:24:16;;;;;;;12.18;6.68;;;6.80;91.20;;;;;;5040949;28;20052;-72
2022/11/29 04:27:35;;;;;;;14.20;7.63;;;6.90;91.10;;;;;;5137781;27;20188;-71
2022/11/29 04:30:08;;;;;;;11.32;5.82;;;7.00;91.00;;;;;;5133510;27;20126;-73
2022/11/29 04:33:06;;;;;;;13.07;6.57;;;7.00;91.10;;;;;;5134427;27;20131;-71
2022/11/29 04:35:41;;;;;;;11.75;6.90;;;7.10;91.10;;;;;;5136730;27;20051;-69
2022/11/29 04:38:34;;;;;;;11.75;6.53;;;7.10;91.20;;;;;;5134394;27;20043;-70
2022/11/29 04:41:18;;;;;;;10.93;6.15;;;7.10;91.20;;;;;;5127310;27;20053;-73
2022/11/29 04:43:59;;;;;;;11.52;5.85;;;7.10;91.10;;;;;;5134424;27;20048;-71
2022/11/29 04:46:44;;;;;;;16.45;7.57;;;7.00;91.10;;;;;;5134312;27;20059;-71
2022/11/29 04:49:25;;;;;;;13.68;7.45;;;7.00;91.10;;;;;;5134221;27;20047;-72
2022/11/29 04:52:21;;;;;;;10.85;6.45;;;6.90;91.20;;;;;;5137367;27;20371;-70
2022/11/29 04:54:59;;;;;;;12.45;6.75;;;7.00;91.10;;;;;;5134835;27;20493;-70
2022/11/29 04:57:35;;;;;;;14.25;7.30;;;7.00;91.20;;;;;;5123865;27;20207;-70
2022/11/29 05:00:08;;;;;;;12.82;6.95;;;6.90;91.20;;;;;;5124461;27;20042;-71
2022/11/29 05:02:43;;;;;;;14.20;6.93;;;6.90;91.30;;;;;;5133888;27;20043;-70
2022/11/29 05:05:23;;;;;;;12.05;7.03;;;6.90;91.30;;;;;;5127028;27;20035;-71
2022/11/29 05:08:10;;;;;;;12.68;6.20;;;6.90;91.30;;;;;;5130494;27;20521;-70
2022/11/29 05:10:48;;;;;;;11.48;6.32;;;6.90;91.30;;;;;;5127113;27;20158;-71
2022/11/29 05:13:23;;;;;;;11.18;6.47;;;6.90;91.30;;;;;;5132119;27;20427;-71
2022/11/29 05:16:07;;;;;;;12.77;6.72;;;6.90;91.30;;;;;;5136314;27;20105;-70
2022/11/29 05:18:57;;;;;;;12.00;6.30;;;6.90;91.30;;;;;;5129144;27;20063;-72
2022/11/29 05:21:36;;;;;;;13.70;7.55;;;6.90;91.20;;;;;;5134588;27;20043;-71
2022/11/29 05:24:15;;;;;;;14.15;6.85;;;6.90;91.20;;;;;;5126920;27;20123;-71
2022/11/29 05:26:50;;;;;;;13.90;7.05;;;6.90;91.20;;;;;;5133363;27;20075;-63
2022/11/29 05:29:26;;;;;;;13.63;7.35;;;6.90;91.20;;;;;;5136007;27;20062;-63
2022/11/29 05:32:13;;;;;;;12.48;6.97;;;6.90;91.20;;;;;;5135538;27;20043;-60
2022/11/29 05:35:02;;;;;;;13.20;7.63;;;6.90;91.20;;;;;;5134545;27;20043;-61
2022/11/29 05:37:38;;;;;;;12.98;7.20;;;6.90;91.20;;;;;;5140516;27;20047;-59
2022/11/29 05:40:39;;;;;;;12.73;7.15;;;6.90;91.10;;;;;;5121859;27;20043;-60
2022/11/29 05:43:27;;;;;;;12.10;7.32;;;6.90;91.10;;;;;;5119386;27;20096;-60
2022/11/29 05:46:02;;;;;;;12.27;7.50;;;6.90;91.20;;;;;;5119174;27;20072;-64
2022/11/29 05:48:37;;;;;;;12.07;7.35;;;6.90;91.20;;;;;;5119634;27;20059;-62
2022/11/29 05:51:16;;;;;;;15.57;7.88;;;6.90;91.20;;;;;;5120987;27;20059;-60
2022/11/29 05:53:47;;;;;;;13.10;7.28;;;6.90;91.30;;;;;;5121155;27;20050;-60
2022/11/29 05:56:24;;;;;;;14.20;7.30;;;6.90;91.30;;;;;;5118892;27;20064;-60
2022/11/29 05:58:57;;;;;;;13.63;7.50;;;6.80;91.40;;;;;;5121579;27;20047;-61
2022/11/29 06:01:28;;;;;;;12.25;6.22;;;6.90;91.40;;;;;;5118437;27;20047;-71
2022/11/29 06:04:01;;;;;;;13.48;7.32;;;6.90;91.30;;;;;;5119477;27;20057;-71
2022/11/29 06:06:38;;;;;;;11.43;6.40;;;6.90;91.30;;;;;;5114156;27;20122;-72
2022/11/29 06:09:13;;;;;;;14.25;7.32;;;6.90;91.30;;;;;;5113268;27;20039;-72
2022/11/29 06:11:44;;;;;;;13.00;7.20;;;6.90;91.30;;;;;;5114060;27;20451;-71
2022/11/29 06:14:29;;;;;;;13.63;6.95;;;6.90;91.30;;;;;;5118219;27;20092;-72
2022/11/29 06:17:34;;;;;;;10.98;6.38;;;6.80;91.20;;;;;;5117560;27;20177;-60
2022/11/29 06:20:25;;;;;;;12.93;6.93;;;6.90;91.20;;;;;;5046043;28;20633;-60
2022/11/29 06:23:11;;;;;;;11.70;6.38;;;6.90;91.20;;;;;;5034399;28;20503;-62
2022/11/29 06:25:55;;;;;;;12.25;6.32;;;6.90;91.20;;;;;;5097195;27;20107;-61
2022/11/29 06:28:32;;;;;;;12.80;7.47;;;6.90;91.30;;;;;;5114751;27;20086;-61
2022/11/29 06:31:05;;;;;;;12.27;7.10;;;6.90;91.20;;;;;;5115476;27;20147;-61
2022/11/29 06:33:42;;;;;;;13.57;6.53;;;6.90;91.20;;;;;;5126689;27;20039;-61
2022/11/29 06:36:16;;;;;;;13.15;6.72;;;6.90;91.20;;;;;;5123495;27;20045;-61
2022/11/29 06:38:43;;;;;;;13.65;7.35;;;6.90;91.20;;;;;;5120843;27;20062;-60
2022/11/29 06:41:17;;;;;;;12.40;7.50;;;6.90;91.30;;;;;;5122124;27;20035;-62
2022/11/29 06:43:46;;;;;;;12.85;7.30;;;6.90;91.30;;;;;;5122317;27;20046;-59
2022/11/29 06:46:22;;;;;;;12.68;7.00;;;6.90;91.30;;;;;;5117883;27;20039;-71
2022/11/29 06:48:53;;;;;;;13.52;7.43;;;6.90;91.20;;;;;;5111829;27;20054;-71
2022/11/29 06:51:31;;;;;;;10.55;6.55;;;6.90;91.20;;;;;;5121570;27;20044;-60
2022/11/29 06:54:11;;;;;;;13.30;7.22;;;6.90;91.30;;;;;;5119069;27;20074;-59
2022/11/29 06:56:45;;;;;;;12.23;7.15;;;6.90;91.30;;;;;;5119687;27;20047;-60
2022/11/29 06:59:27;;;;;;;12.52;7.68;;;6.90;91.30;;;;;;5120049;27;20477;-59
2022/11/29 07:02:00;;;;;;;13.27;6.85;;;6.90;91.30;;;;;;5117297;27;20121;-66
2022/11/29 07:04:45;;;;;;;12.15;6.70;;;6.90;91.30;;;;;;5115511;27;20047;-65
2022/11/29 07:07:17;;;;;;;12.63;6.45;;;6.90;91.40;;;;;;5120019;27;20057;-60
2022/11/29 07:09:48;;;;;;;12.50;6.72;;;6.90;91.50;;;;;;5120667;27;20046;-60
2022/11/29 07:12:15;;;;;;;14.18;7.60;;;6.90;91.50;;;;;;5120105;27;20074;-60
2022/11/29 07:14:43;;;;;;;13.68;6.85;;;6.90;91.50;;;;;;5121138;27;20039;-59
2022/11/29 07:17:20;;;;;;;12.35;7.20;;;6.90;91.50;;;;;;5117286;27;20039;-59
2022/11/29 07:19:58;;;;;;;13.15;7.00;;;6.90;91.40;;;;;;5120007;27;20547;-59
2022/11/29 07:22:41;;;;;;;13.48;7.15;;;7.00;91.40;;;;;;5117554;27;20036;-59
2022/11/29 07:25:21;;;;;;;13.05;7.20;;;6.90;91.40;;;;;;5112370;27;20126;-59
2022/11/29 07:27:58;;;;;;;11.27;6.63;;;6.90;91.40;;;;;;5118320;27;20046;-61
2022/11/29 07:30:30;;;;;;;13.57;7.30;;;7.00;91.50;;;;;;5117149;27;20114;-60
2022/11/29 07:33:06;;;;;;;11.32;6.68;;;6.90;91.40;;;;;;5117312;27;20126;-60
2022/11/29 07:35:44;;;;;;;11.77;6.82;;;7.00;91.40;;;;;;5120295;27;20476;-59
2022/11/29 07:38:21;;;;;;;12.00;7.15;;;7.00;91.40;;;;;;5117430;27;20135;-59
2022/11/29 07:40:55;;;;;;;15.75;8.40;;;7.00;91.40;;;;;;5121448;27;20493;-59
2022/11/29 07:43:34;;;;;;;14.70;8.25;;;7.00;91.40;;;;;;5114990;27;20445;-60
2022/11/29 07:46:01;;;;;;;12.43;7.57;;;7.10;91.40;;;;;;5113519;27;20046;-58
2022/11/29 07:48:28;;;;;;;13.45;7.38;;;7.10;91.40;;;;;;5119501;27;20402;-60
2022/11/29 07:50:56;;;;;;;12.02;7.35;;;7.10;91.40;;;;;;5118214;27;20278;-59
2022/11/29 07:53:24;;;;;;;13.15;7.50;;;7.10;91.40;;;;;;5119221;27;20078;-61
2022/11/29 07:55:51;;;;;;;13.07;7.18;;;7.10;91.30;;;;;;5111777;27;20058;-70
2022/11/29 07:58:19;;;;;;;13.82;7.80;;;7.10;91.20;;;;;;5116142;27;21841;-70
2022/11/29 08:00:46;;;;;;;13.88;7.50;;;7.10;91.30;;;;;;5114199;27;20418;-61
2022/11/29 08:03:13;;;;;;;16.75;8.57;;;7.10;91.30;;;;;;5116752;27;20043;-61
2022/11/29 08:05:45;;;;;;;13.15;7.10;;;7.20;91.30;;;;;;5114936;27;20059;-62
2022/11/29 08:08:12;;;;;;;15.10;8.40;;;7.20;91.20;;;;;;5113860;27;20043;-62
2022/11/29 08:10:40;;;;;;;13.52;8.15;;;7.20;91.10;;;;;;5113336;27;20039;-62
2022/11/29 08:13:07;;;;;;;14.02;7.65;;;7.20;91.10;;;;;;5116690;27;20032;-63
2022/11/29 08:15:34;;;;;;;15.35;8.45;;;7.20;91.20;;;;;;5112512;27;20047;-60
2022/11/29 08:18:02;;;;;;;16.45;8.38;;;7.20;91.10;;;;;;5111658;27;20055;-59
2022/11/29 08:20:29;;;;;;;14.43;7.80;;;7.20;91.10;;;;;;5115386;27;20126;-70
2022/11/29 08:22:58;;;;;;;13.48;7.57;;;7.20;91.00;;;;;;5116621;27;20040;-71
2022/11/29 08:25:26;;;;;;;15.07;7.57;;;7.20;91.10;;;;;;5118589;27;20044;-70
2022/11/29 08:27:55;;;;;;;16.67;8.82;;;7.20;91.10;;;;;;5114513;27;20117;-71
2022/11/29 08:30:23;;;;;;;13.82;8.55;;;7.30;91.10;;;;;;5118761;27;20130;-71
2022/11/29 08:32:51;;;;;;;15.13;7.95;;;7.30;91.10;;;;;;5116739;27;20047;-71
2022/11/29 08:35:20;;;;;;;13.98;8.82;;;7.30;91.00;;;;;;5115903;27;20070;-61
2022/11/29 08:37:47;;;;;;;16.48;8.32;;;7.30;91.00;;;;;;5119913;27;20067;-61
2022/11/29 08:40:16;;;;;;;16.42;8.82;;;7.40;90.90;;;;;;5119268;27;20251;-59
2022/11/29 08:42:43;;;;;;;14.07;8.18;;;7.40;90.80;;;;;;5117930;27;20051;-60
2022/11/29 08:45:12;;;;;;;15.43;8.18;;;7.40;90.90;;;;;;5118739;27;20455;-60
2022/11/29 08:47:41;;;;;;;13.60;7.40;;;7.50;90.90;;;;;;5114028;27;20067;-61
2022/11/29 08:50:13;;;;;;;15.23;8.10;;;7.40;90.80;;;;;;5120379;27;20118;-60
2022/11/29 08:55:27;;;;;;;12.95;7.70;;;7.50;90.80;;;;;;5092334;27;20540;-60
2022/11/29 08:58:00;;;;;;;15.00;8.10;;;7.50;90.90;;;;;;5114708;27;20157;-60
2022/11/29 09:00:29;;;;;;;15.35;7.57;;;7.50;90.90;;;;;;5114211;27;20096;-62
2022/11/29 09:03:58;;;;;;;13.18;7.85;;;7.50;90.80;;;;;;5116639;27;20039;-63
2022/11/29 09:05:43;;;;;;;14.07;7.43;;;7.50;90.80;;;;;;5120503;27;20063;-61
2022/11/29 09:08:10;;;;;;;13.68;7.85;;;7.50;90.70;;;;;;5114785;27;20059;-61
2022/11/29 09:10:38;;;;;;;14.50;7.78;;;7.50;90.80;;;;;;5117303;27;20044;-64
2022/11/29 09:13:06;;;;;;;15.00;7.90;;;7.50;90.70;;;;;;5119161;27;20051;-63
2022/11/29 09:15:34;;;;;;;12.32;6.95;;;7.60;90.70;;;;;;5126135;27;20045;-60
2022/11/29 09:18:03;;;;;;;13.32;7.40;;;7.50;90.70;;;;;;5123161;27;20036;-60
2022/11/29 09:20:29;;;;;;;15.25;8.32;;;7.60;90.60;;;;;;5124551;27;20475;-72
2022/11/29 09:22:58;;;;;;;14.38;7.15;;;7.60;90.60;;;;;;5122882;27;20044;-71
2022/11/29 09:25:25;;;;;;;16.33;8.82;;;7.60;90.60;;;;;;5118029;27;20472;-71
2022/11/29 09:27:52;;;;;;;20.80;12.48;;;7.60;90.60;;;;;;5119491;27;20047;-71
2022/11/29 09:30:19;;;;;;;25.55;15.23;;;7.60;90.60;;;;;;5117364;27;20525;-70
2022/11/29 09:32:48;;;;;;;24.17;14.65;;;7.60;90.60;;;;;;5119448;27;20113;-71
2022/11/29 09:35:17;;;;;;;20.45;12.32;;;7.60;90.60;;;;;;5116961;27;20043;-71
2022/11/29 09:37:44;;;;;;;28.23;15.63;;;7.60;90.70;;;;;;5118580;27;20087;-71
2022/11/29 09:40:18;;;;;;;29.35;18.10;;;7.70;90.70;;;;;;5120588;27;20046;-71
2022/11/29 09:42:56;;;;;;;32.17;19.73;;;7.70;90.60;;;;;;5121058;27;20062;-70
2022/11/29 09:45:32;;;;;;;26.75;15.13;;;7.70;90.60;;;;;;5119162;27;20055;-71
2022/11/29 09:48:32;;;;;;;23.45;14.10;;;7.70;90.50;;;;;;5118616;27;20124;-70
2022/11/29 09:51:12;;;;;;;19.70;11.40;;;7.70;90.40;;;;;;5113975;27;20043;-72
2022/11/29 09:53:58;;;;;;;24.08;13.77;;;7.70;90.40;;;;;;5114532;27;20378;-72
2022/11/29 09:56:33;;;;;;;21.52;13.70;;;7.70;90.50;;;;;;5116599;27;20513;-71
2022/11/29 09:59:04;;;;;;;25.80;13.95;;;7.70;90.40;;;;;;5121067;27;20039;-71
2022/11/29 10:01:35;;;;;;;28.98;15.52;;;7.80;90.40;;;;;;5116256;27;20050;-71
2022/11/29 10:04:09;;;;;;;29.60;17.58;;;7.80;90.40;;;;;;5120556;27;20039;-72
2022/11/29 10:06:40;;;;;;;30.15;17.65;;;7.80;90.40;;;;;;5116910;27;20140;-61
2022/11/29 10:09:15;;;;;;;27.08;16.58;;;7.80;90.30;;;;;;5119054;27;20066;-60
2022/11/29 10:11:51;;;;;;;25.08;14.75;;;7.80;90.40;;;;;;5118044;27;22010;-60
2022/11/29 10:14:22;;;;;;;21.15;12.57;;;7.80;90.40;;;;;;5121503;27;20443;-61
2022/11/29 10:16:53;;;;;;;20.20;11.95;;;7.80;90.40;;;;;;5118472;27;20124;-61
2022/11/29 10:19:28;;;;;;;21.30;11.38;;;7.80;90.40;;;;;;5116488;27;20035;-61
2022/11/29 10:22:02;;;;;;;19.90;11.35;;;7.80;90.30;;;;;;5119164;27;20128;-60
2022/11/29 10:24:31;;;;;;;18.70;11.23;;;7.80;90.30;;;;;;5122036;27;20508;-60
2022/11/29 10:26:58;;;;;;;16.50;9.80;;;7.90;90.20;;;;;;5119997;27;20087;-61
2022/11/29 10:29:26;;;;;;;18.83;10.75;;;7.80;90.20;;;;;;5117075;27;20067;-60
2022/11/29 10:31:55;;;;;;;20.77;12.30;;;7.90;90.20;;;;;;5121975;27;20039;-60
2022/11/29 10:34:25;;;;;;;22.73;12.00;;;7.90;90.20;;;;;;5119661;27;20515;-59
2022/11/29 10:36:57;;;;;;;18.83;10.63;;;7.90;90.30;;;;;;5115446;27;20148;-61
2022/11/29 10:39:30;;;;;;;18.95;10.82;;;7.90;90.20;;;;;;5119941;27;20039;-60
2022/11/29 10:42:01;;;;;;;16.67;10.52;;;7.90;90.20;;;;;;5119548;27;20061;-60
2022/11/29 10:44:28;;;;;;;17.13;10.23;;;7.90;90.20;;;;;;5121767;27;20121;-59
2022/11/29 10:46:56;;;;;;;18.52;9.75;;;7.90;90.30;;;;;;5119124;27;20151;-71
2022/11/29 10:49:29;;;;;;;16.00;9.75;;;8.00;90.30;;;;;;5123658;27;20130;-70
2022/11/29 10:51:56;;;;;;;15.80;9.27;;;7.90;90.20;;;;;;5118078;27;20104;-71
2022/11/29 10:54:31;;;;;;;15.85;9.43;;;7.90;90.10;;;;;;5111802;27;20039;-70
2022/11/29 10:57:00;;;;;;;14.60;8.07;;;8.00;90.10;;;;;;5120881;27;20070;-71
2022/11/29 10:59:31;;;;;;;;;;;7.90;90.10;;;;;;5119612;27;20490;-70
2022/11/29 11:01:59;;;;;;;14.07;7.72;;;8.00;90.20;;;;;;5120407;27;19924;-72
2022/11/29 11:04:33;;;;;;;13.27;8.07;;;7.90;90.20;;;;;;5115665;27;20044;-69
2022/11/29 11:07:02;;;;;;;15.82;7.82;;;7.90;90.20;;;;;;5119044;27;20067;-72
2022/11/29 11:09:34;;;;;;;14.40;8.20;;;8.00;90.20;;;;;;5115697;27;20039;-71
2022/11/29 11:12:03;;;;;;;12.75;7.22;;;7.90;90.10;;;;;;5114462;27;20043;-71
2022/11/29 11:14:33;;;;;;;14.47;7.93;;;7.90;90.10;;;;;;5117047;27;20126;-70
2022/11/29 11:17:16;;;;;;;13.18;7.70;;;8.00;90.20;;;;;;5116874;27;20054;-69
2022/11/29 11:19:55;;;;;;;13.70;7.53;;;7.90;90.20;;;;;;5118580;27;20051;-69
2022/11/29 11:22:24;;;;;;;14.65;8.07;;;8.00;90.10;;;;;;5120573;27;20080;-62
2022/11/29 11:24:58;;;;;;;13.20;7.80;;;8.00;90.10;;;;;;5118262;27;20047;-60
2022/11/29 11:27:34;;;;;;;17.33;8.68;;;8.00;90.10;;;;;;5116923;27;20047;-61
2022/11/29 11:30:02;;;;;;;19.15;9.00;;;8.10;90.20;;;;;;5113735;27;20039;-60
2022/11/29 11:32:30;;;;;;;16.90;8.43;;;8.00;90.20;;;;;;5116123;27;20047;-60
2022/11/29 11:35:00;;;;;;;15.82;8.05;;;8.10;90.10;;;;;;5117010;27;20512;-60
2022/11/29 11:37:32;;;;;;;15.13;8.48;;;8.10;90.10;;;;;;5116844;27;20055;-61
2022/11/29 11:40:00;;;;;;;14.98;7.97;;;8.10;90.00;;;;;;5117852;27;20517;-59
2022/11/29 11:42:37;;;;;;;14.25;7.80;;;8.10;90.00;;;;;;5119968;27;20402;-61
2022/11/29 11:45:21;;;;;;;14.95;8.20;;;8.10;90.00;;;;;;5118178;27;20494;-61
2022/11/29 11:47:50;;;;;;;13.65;7.78;;;8.10;90.00;;;;;;5118679;27;20058;-61
2022/11/29 11:50:30;;;;;;;15.55;8.25;;;8.10;90.10;;;;;;5120242;27;20043;-60
2022/11/29 11:53:00;;;;;;;14.00;7.32;;;8.10;90.00;;;;;;5116844;27;20082;-60
2022/11/29 11:55:42;;;;;;;15.85;8.05;;;8.10;90.00;;;;;;5120096;27;20113;-61
2022/11/29 11:58:18;;;;;;;13.82;7.65;;;8.10;90.00;;;;;;5120160;27;20063;-60
2022/11/29 12:00:50;;;;;;;14.32;7.55;;;8.10;90.00;;;;;;5117080;27;20047;-61
2022/11/29 12:03:48;;;;;;;14.50;7.70;;;8.20;90.10;;;;;;5112681;27;20066;-61
2022/11/29 12:06:29;;;;;;;14.45;7.70;;;8.10;90.00;;;;;;5073146;27;20398;-60
2022/11/29 12:09:01;;;;;;;13.30;7.47;;;8.10;90.10;;;;;;5114412;27;20047;-61
2022/11/29 12:11:37;;;;;;;11.60;7.35;;;8.10;90.10;;;;;;5116958;27;20066;-60
2022/11/29 12:14:06;;;;;;;14.43;7.40;;;8.10;90.20;;;;;;5118191;27;20068;-61
2022/11/29 12:16:39;;;;;;;12.80;7.15;;;8.10;90.20;;;;;;5116670;27;20054;-60
2022/11/29 12:19:14;;;;;;;12.73;7.32;;;8.10;90.20;;;;;;5115766;27;20058;-61
2022/11/29 12:21:47;;;;;;;14.20;7.70;;;8.20;90.20;;;;;;5114686;27;20051;-62
2022/11/29 12:24:20;;;;;;;15.88;8.23;;;8.20;90.30;;;;;;5117279;27;20047;-62
2022/11/29 12:26:47;;;;;;;14.05;8.27;;;8.10;90.30;;;;;;5120304;27;20447;-61
2022/11/29 12:29:17;;;;;;;14.70;7.95;;;8.10;90.10;;;;;;5117007;27;20039;-61
2022/11/29 12:31:57;;;;;;;17.88;8.48;;;8.10;90.40;;;;;;5118587;27;20069;-59
2022/11/29 12:34:36;;;;;;;;;;;8.10;90.40;;;;;;5113315;27;20047;-60
2022/11/29 12:37:10;;;;;;;14.32;7.85;;;8.10;90.50;;;;;;5116857;27;20525;-60
2022/11/29 12:39:49;;;;;;;16.42;8.02;;;8.10;90.50;;;;;;5120690;27;20141;-59
2022/11/29 12:42:26;;;;;;;15.48;8.07;;;8.20;90.70;;;;;;5113624;27;20040;-59
2022/11/29 12:45:00;;;;;;;18.75;9.00;;;8.10;90.70;;;;;;5114024;27;20030;-60
2022/11/29 12:47:41;;;;;;;17.95;9.45;;;8.20;90.80;;;;;;5118451;27;20096;-59
2022/11/29 12:50:21;;;;;;;18.35;8.45;;;8.20;90.70;;;;;;5122184;27;20508;-59
2022/11/29 12:52:59;;;;;;;18.10;8.45;;;8.20;90.70;;;;;;5121066;27;20060;-59
2022/11/29 12:55:32;;;;;;;14.38;7.90;;;8.20;90.70;;;;;;5120768;27;20051;-60
2022/11/29 12:58:07;;;;;;;16.48;8.52;;;8.20;90.70;;;;;;5121513;27;20052;-59
2022/11/29 13:00:42;;;;;;;15.98;8.57;;;8.20;90.80;;;;;;5120866;27;20122;-59
2022/11/29 13:03:20;;;;;;;20.85;9.45;;;8.20;90.80;;;;;;5121015;27;20042;-59
2022/11/29 13:06:01;;;;;;;15.63;9.15;;;8.20;90.80;;;;;;5119435;27;20047;-59
2022/11/29 13:08:54;;;;;;;18.98;9.38;;;8.20;90.90;;;;;;5121499;27;20036;-59
2022/11/29 13:11:25;;;;;;;19.77;9.52;;;8.20;90.80;;;;;;5113414;27;20039;-60
2022/11/29 13:14:01;;;;;;;17.05;8.65;;;8.20;90.90;;;;;;5118577;27;20047;-62
2022/11/29 13:16:39;;;;;;;18.35;9.13;;;8.20;90.90;;;;;;5120758;27;20044;-61
2022/11/29 13:19:12;;;;;;;18.05;8.52;;;8.20;90.90;;;;;;5115112;27;20180;-60
2022/11/29 13:21:46;;;;;;;19.80;9.48;;;8.20;90.90;;;;;;5116119;27;20119;-61
2022/11/29 13:24:22;;;;;;;21.27;9.80;;;8.20;90.90;;;;;;5121769;27;20079;-61
2022/11/29 13:26:50;;;;;;;21.45;10.57;;;8.20;90.90;;;;;;5119445;27;20086;-73
2022/11/29 13:29:18;;;;;;;20.75;10.55;;;8.20;91.00;;;;;;5120139;27;20085;-71